Greenway, South Dakota
Current Conditions -  °F | °C
As of 6:52 PM on Friday 24 Oct 2014 (Local Time) from KMBG Reporting Station
Clear Clear  
Wind Chill: 65°   Ceiling: Unl
Heat Index: 65°   Visibility: 10mi
Dew Point: 37°   Wind: 8mph
Humidity: 36%   Direction: 320°NW
Pressure: 29.96"   Gusts: NA
Location:  45.7737°N, 99.5895°W
Report Text: KMBG 242352Z AUTO 32007KT 10SM CLR 18/03 A2996 RMK AO2 SLP149 T01830028 10244 20183 53022
Loading
Personal Weather Stations






























Interactive Weather Map
Tropical Storm Tracking
New forecast layout! Learn more

10-Day Weather Forecast

Advertisements
Track Severe Weather on mobile